Sutton, ND (58484)

09:05 PM CDT die 02o September, anno 2014 (GMT -0500)
Thurlow Farms | Change Station
CLOSE
Current Station
Personal Weather Stations
Location: Carrington, ND
Elevation: 1535 ft
Nearby Weather Stations

Elev 1535 ft 47.43 °N, 98.84 °W | Updated 3 minutes ago

Serena
Serena
61.6 °F
Feels Like 61.6 °F
N
0.0
Ventus Variabilis Ventus from Magis Aquilo quam Zephyrus
Gusts 0.0 mph

Hodie
High -- | Low -- °F
--% Chance of Precip.
Yesterday
High -- | Low -- °F
Precip. -- in
6:54 AM 8:11 PM
First Quarter, 57% visible
Pressio 29.75 in
Visibilitas 10.0 milia passuum
Clouds Serena
Frigus in quo Ros apparet 52 °F
Umor 70%
Rainfall 0.00 in
Snow Depth Not available.
UV 0 out of 12
Pollen 10.10 out of 12
Air Quality Not available.
Flu Activity Not available.
METAR KJMS 030156Z AUTO 00000KT 10SM CLR 17/12 A2975 RMK AO2 SLP072 T01720117

More Conditions Fewer Conditions

Pressio 29.75 in
Visibilitas 10.0 milia passuum
Clouds Serena
Frigus in quo Ros apparet 52 °F
Umor 70%
Rainfall 0.00 in
Snow Depth Not available.
UV 0 out of 12
Pollen 10.10 out of 12
Air Quality Not available.
Flu Activity Not available.
METAR KJMS 030156Z AUTO 00000KT 10SM CLR 17/12 A2975 RMK AO2 SLP072 T01720117

More Conditions Fewer Conditions

10-Day Weather Forecast

Almanac

Astronomy

Sep. 02, 2014 Rise Set
Actual Time 6:54 AM CDT 8:11 PM CDT
Civil Twilight 6:22 AM CDT 8:43 PM CDT
Nautical Twilight 5:43 AM CDT 9:21 PM CDT
Astronomical Twilight 5:02 AM CDT 10:02 PM CDT
Moon 3:08 PM CDT (9/2) Nulla Occasus Lunae
Length Of Visible Light 14h 21m
Length of Day
13h 17m
Tomorrow will be 3m 18s shorter.
First Quarter, 57% of the Moon is Illuminated
Hodie
First Quarter
Sep 8
Full
Sep 15
Last Quarter
Sep 24
New
Oct 1
First Quarter

Today's Extremes

State Highs State Lows

Community

WunderPhotos

Upload Photos

1,749,837 photos uploaded!

Nearby

Snow Depth

Station Depth Elevation
No new snow has been reported.

Earthquake Activity

City Distance Mag. Time & Date
No recent earthquake activity has been reported nearby.
Minimum magnitude displayed is 2.5.

Coastal Water Temperatures

Locus Calor
No Stations Reporting

Nearby Weather Stations